Estación Meteorológica Peña el Pijo (Robertgarden) [ 11/17/17 23:54:34 CET ]

Fecha Hora Presion(HPa) Temp (°C) Humedad % Rocio (°C) Viento ( m/s) Direccion Lluvia 1Hora(mm) Lluvia 24H(mm) LLuvia Total(mm)
2017-Sep-09 01:02:05 1007.500 13.1 61 5.7         1457.65
2017-Sep-09 02:01:47 1006.900 12.4 65 6.0         1457.65
2017-Sep-09 03:02:18 1005.900 12.3 67 6.3         1457.65
2017-Sep-09 04:02:23 1005.600 14.1 63 7.1         1457.65
2017-Sep-09 05:02:04 1005.400 13.5 62 6.3         1457.65
2017-Sep-09 06:02:10 1004.500 12.8 62 5.7         1457.65
2017-Sep-09 07:01:36 1004.100 12.9 60 5.3         1457.65
2017-Sep-09 08:01:48 1003.900 19.1 32 2.0         1457.65
2017-Sep-09 09:01:50 1003.700 19.9 31 2.2         1457.65
2017-Sep-09 10:01:48 1004.100 20.4 30 2.3         1457.65
2017-Sep-09 11:01:34 1003.700 20.4 29 1.7         1457.65
2017-Sep-09 12:01:39 1003.500 21.9 23 -0.4         1457.65
2017-Sep-09 13:01:33 1003.400 21.9 23 -0.4         1457.65
2017-Sep-09 14:01:51 1002.800 22.5 25 1.3         1457.65
2017-Sep-09 15:01:41 1002.000 22.9 26 2.2         1457.65
2017-Sep-09 16:01:43 1001.800 25.7 27 5.1         1457.65
2017-Sep-09 17:01:53 1001.300 26.2 25 4.4         1457.65
2017-Sep-09 18:01:52 1001.200 24.9 29 5.6 2.5 N     1457.65
2017-Sep-09 19:01:54 1001.200 21.8 36 6.0         1457.65
2017-Sep-09 20:01:45 1001.300 20.4 41 6.7         1457.65
2017-Sep-09 21:01:45 1001.600 19.5 43 6.5         1457.65
2017-Sep-09 22:01:42 1002.500 19.6 42 6.3         1457.65
2017-Sep-09 23:01:48 1003.000 18.1 43 5.2         1457.65

Temperatura Máxima:26°    Temperatura Mínima:12°
Presión Máxima:1007.500 Hpa    Presión Mínima:1001.200 Hpa


Volver